createdAt,value
2024-04-09T00:01:44.670Z,12.70
2024-04-09T00:04:12.233Z,14.48
2024-04-09T00:06:39.647Z,11.95
2024-04-09T00:09:07.497Z,17.42
2024-04-09T00:11:36.945Z,16.15
2024-04-09T00:14:05.962Z,13.90
2024-04-09T00:16:35.131Z,15.35
2024-04-09T00:19:02.968Z,11.13
2024-04-09T00:21:31.303Z,11.35
2024-04-09T00:23:59.851Z,13.15
2024-04-09T00:26:29.735Z,20.92
2024-04-09T00:28:57.275Z,15.77
2024-04-09T00:31:26.082Z,16.48
2024-04-09T00:33:53.826Z,14.90
2024-04-09T00:36:21.547Z,10.38
2024-04-09T00:38:50.179Z,13.23
2024-04-09T00:41:18.208Z,11.40
2024-04-09T00:43:46.895Z,14.13
2024-04-09T00:46:14.921Z,16.00
2024-04-09T00:48:43.334Z,13.15
2024-04-09T00:51:11.617Z,11.13
2024-04-09T00:53:38.971Z,15.15
2024-04-09T00:56:07.267Z,12.23
2024-04-09T00:58:36.365Z,11.32
2024-04-09T01:01:05.568Z,12.05
2024-04-09T01:03:33.755Z,13.05
2024-04-09T01:06:01.935Z,12.32
2024-04-09T01:08:29.372Z,10.88
2024-04-09T01:10:56.770Z,12.57
2024-04-09T01:13:24.142Z,11.43
2024-04-09T01:15:51.491Z,8.50
2024-04-09T01:18:19.519Z,13.95
2024-04-09T01:20:47.042Z,13.10
2024-04-09T01:23:14.455Z,18.15
2024-04-09T01:25:42.292Z,11.50
2024-04-09T01:28:09.930Z,14.95
2024-04-09T01:30:39.186Z,15.95
2024-04-09T01:33:06.820Z,12.00
2024-04-09T01:35:34.384Z,12.57
2024-04-09T01:38:01.873Z,11.57
2024-04-09T01:40:29.539Z,13.48
2024-04-09T01:42:56.879Z,16.88
2024-04-09T01:45:24.396Z,11.93
2024-04-09T01:47:52.406Z,12.55
2024-04-09T01:50:21.609Z,15.43
2024-04-09T01:52:49.586Z,16.98
2024-04-09T01:55:20.315Z,17.02
2024-04-09T01:57:48.215Z,9.65
2024-04-09T02:00:21.630Z,22.45
2024-04-09T02:02:51.266Z,9.98
2024-04-09T02:05:21.163Z,12.95
2024-04-09T02:07:49.069Z,17.92
2024-04-09T02:10:16.523Z,14.73
2024-04-09T02:12:44.408Z,12.50
2024-04-09T02:15:14.370Z,18.10
2024-04-09T02:17:42.280Z,9.48
2024-04-09T02:20:11.569Z,8.75
2024-04-09T02:22:39.513Z,14.55
2024-04-09T02:25:07.063Z,11.00
2024-04-09T02:27:34.740Z,11.18
2024-04-09T02:30:04.720Z,13.75
2024-04-09T02:32:33.175Z,15.18
2024-04-09T02:35:02.586Z,9.25
2024-04-09T02:37:30.031Z,14.93
2024-04-09T02:39:57.731Z,15.20
2024-04-09T02:42:26.120Z,14.52
2024-04-09T02:44:53.868Z,14.02
2024-04-09T02:47:21.393Z,13.10
2024-04-09T02:49:48.925Z,10.75
2024-04-09T02:52:16.475Z,13.05
2024-04-09T02:54:43.964Z,15.27
2024-04-09T02:57:12.088Z,9.55
2024-04-09T02:59:40.557Z,10.63
2024-04-09T03:02:08.317Z,14.80
2024-04-09T03:04:36.053Z,12.60
2024-04-09T03:07:05.048Z,17.55
2024-04-09T03:09:33.439Z,13.38
2024-04-09T03:12:02.513Z,14.00
2024-04-09T03:14:30.556Z,16.70
2024-04-09T03:16:58.063Z,16.40
2024-04-09T03:19:25.483Z,8.65
2024-04-09T03:21:52.842Z,15.07
2024-04-09T03:24:20.291Z,20.25
2024-04-09T03:26:47.675Z,11.00
2024-04-09T03:29:15.037Z,15.30
2024-04-09T03:31:42.375Z,8.40
2024-04-09T03:34:09.952Z,14.80
2024-04-09T03:36:37.393Z,12.48
2024-04-09T03:39:05.788Z,16.08
2024-04-09T03:41:33.268Z,15.93
2024-04-09T03:44:03.632Z,11.20
2024-04-09T03:46:30.974Z,14.43
2024-04-09T03:48:58.630Z,20.65
2024-04-09T03:51:26.218Z,17.38
2024-04-09T03:53:53.665Z,16.25
2024-04-09T03:56:21.047Z,13.85
2024-04-09T03:58:51.234Z,18.77
2024-04-09T04:01:19.127Z,14.43
2024-04-09T04:03:47.605Z,13.80
2024-04-09T04:06:16.255Z,15.18
2024-04-09T04:08:44.898Z,17.33
2024-04-09T04:11:13.364Z,11.30
2024-04-09T04:13:41.238Z,19.10
2024-04-09T04:16:13.891Z,16.60
2024-04-09T04:18:42.618Z,17.25
2024-04-09T04:21:12.248Z,13.40
2024-04-09T04:23:40.702Z,14.82
2024-04-09T04:26:15.269Z,18.17
2024-04-09T04:28:43.703Z,16.77
2024-04-09T04:31:18.725Z,17.08
2024-04-09T04:33:46.810Z,14.75
2024-04-09T04:36:16.761Z,19.13
2024-04-09T04:38:45.043Z,17.80
2024-04-09T04:41:12.539Z,26.05
2024-04-09T04:43:40.829Z,18.38
2024-04-09T04:46:08.848Z,13.80
2024-04-09T04:48:37.898Z,13.23
2024-04-09T04:51:05.894Z,12.20
2024-04-09T04:53:33.306Z,12.65
2024-04-09T04:56:00.945Z,15.48
2024-04-09T04:58:28.622Z,12.80
2024-04-09T05:00:56.588Z,10.23
2024-04-09T05:03:24.341Z,16.95
2024-04-09T05:05:51.830Z,21.70
2024-04-09T05:08:20.110Z,18.42
2024-04-09T05:10:47.559Z,14.00
2024-04-09T05:13:14.920Z,16.25
2024-04-09T05:15:42.304Z,16.92
2024-04-09T05:18:11.355Z,16.80
2024-04-09T05:20:41.016Z,16.30
2024-04-09T05:23:08.943Z,16.00
2024-04-09T05:25:36.761Z,10.73
2024-04-09T05:28:04.445Z,14.57
2024-04-09T05:30:32.109Z,14.80
2024-04-09T05:32:59.882Z,25.77
2024-04-09T05:35:27.851Z,15.70
2024-04-09T05:37:55.657Z,15.25
2024-04-09T05:40:23.156Z,18.88
2024-04-09T05:42:50.809Z,19.23
2024-04-09T05:45:20.633Z,20.20
2024-04-09T05:47:48.517Z,23.90
2024-04-09T05:50:16.051Z,15.40
2024-04-09T05:52:43.457Z,19.83
2024-04-09T05:55:13.150Z,17.88
2024-04-09T05:57:41.664Z,17.40
2024-04-09T06:00:10.729Z,21.15
2024-04-09T06:02:38.253Z,18.38
2024-04-09T06:05:06.069Z,22.73
2024-04-09T06:07:33.496Z,22.00
2024-04-09T06:10:01.119Z,17.45
2024-04-09T06:12:28.589Z,23.40
2024-04-09T06:14:55.980Z,11.75
2024-04-09T06:17:23.532Z,12.65
2024-04-09T06:19:52.115Z,13.60
2024-04-09T06:22:19.590Z,13.68
2024-04-09T06:24:51.959Z,23.92
2024-04-09T06:27:19.321Z,22.00
2024-04-09T06:29:47.146Z,15.43
2024-04-09T06:32:14.620Z,12.85
2024-04-09T06:34:43.595Z,15.13
2024-04-09T06:37:11.338Z,20.50
2024-04-09T06:39:39.312Z,13.10
2024-04-09T06:42:06.933Z,17.73
2024-04-09T06:44:34.455Z,19.23
2024-04-09T06:47:03.125Z,11.90
2024-04-09T06:49:30.889Z,16.17
2024-04-09T06:51:59.033Z,16.33
2024-04-09T06:54:26.446Z,18.08
2024-04-09T06:56:54.021Z,19.50
2024-04-09T06:59:21.622Z,15.43
2024-04-09T07:01:50.289Z,27.55
2024-04-09T07:04:18.138Z,15.48
2024-04-09T07:06:45.905Z,18.83
2024-04-09T07:09:18.549Z,17.48
2024-04-09T07:11:47.281Z,13.68
2024-04-09T07:14:15.326Z,13.70
2024-04-09T07:16:44.417Z,13.55
2024-04-09T07:19:11.971Z,14.52
2024-04-09T07:21:39.967Z,13.30
2024-04-09T07:24:08.524Z,19.88
2024-04-09T07:26:36.064Z,27.50
2024-04-09T07:29:03.749Z,21.00
2024-04-09T07:31:31.225Z,19.75
2024-04-09T07:33:58.991Z,14.73
2024-04-09T07:36:26.530Z,17.38
2024-04-09T07:38:54.234Z,21.02
2024-04-09T07:41:24.983Z,15.45
2024-04-09T07:43:52.622Z,19.85
2024-04-09T07:46:23.232Z,16.02
2024-04-09T07:48:50.869Z,16.40
2024-04-09T07:51:18.519Z,19.33
2024-04-09T07:53:45.843Z,17.55
2024-04-09T07:56:16.036Z,18.38
2024-04-09T07:58:44.021Z,23.77
2024-04-09T08:01:11.774Z,17.65
2024-04-09T08:03:39.547Z,12.52
2024-04-09T08:06:08.200Z,14.38
2024-04-09T08:08:39.287Z,14.50
2024-04-09T08:11:09.204Z,13.57
2024-04-09T08:13:36.627Z,13.48
2024-04-09T08:16:04.143Z,13.32
2024-04-09T08:18:31.827Z,13.40
2024-04-09T08:20:59.705Z,16.33
2024-04-09T08:23:27.129Z,16.58
2024-04-09T08:25:54.527Z,16.25
2024-04-09T08:28:22.254Z,12.57
2024-04-09T08:30:51.616Z,20.70
2024-04-09T08:33:19.299Z,13.98
2024-04-09T08:35:47.591Z,14.32
2024-04-09T08:38:14.975Z,22.67
2024-04-09T08:40:42.663Z,17.75
2024-04-09T08:43:10.747Z,26.60
2024-04-09T08:45:38.653Z,16.92
2024-04-09T08:48:08.345Z,12.00
2024-04-09T08:50:36.579Z,16.38
2024-04-09T08:53:05.234Z,15.40
2024-04-09T08:55:32.817Z,23.08
2024-04-09T08:58:00.653Z,22.50
2024-04-09T09:00:28.092Z,17.45
2024-04-09T09:02:56.150Z,17.67
2024-04-09T09:05:26.303Z,20.77
2024-04-09T09:08:04.261Z,15.85
2024-04-09T09:10:34.839Z,17.13
2024-04-09T09:13:03.600Z,16.38
2024-04-09T09:15:31.675Z,17.00
2024-04-09T09:17:59.264Z,20.35
2024-04-09T09:20:27.022Z,12.98
2024-04-09T09:22:55.828Z,18.17
2024-04-09T09:25:28.436Z,21.63
2024-04-09T09:28:08.516Z,12.65
2024-04-09T09:30:43.774Z,20.92
2024-04-09T09:33:15.977Z,21.58
2024-04-09T09:35:48.042Z,21.05
2024-04-09T09:38:15.769Z,17.67
2024-04-09T09:40:46.033Z,16.45
2024-04-09T09:43:14.509Z,24.45
2024-04-09T09:45:42.217Z,13.07
2024-04-09T09:48:13.542Z,17.27
2024-04-09T09:50:44.204Z,22.45
2024-04-09T09:53:11.998Z,13.18
2024-04-09T09:55:39.731Z,17.42
2024-04-09T09:58:10.139Z,20.02
2024-04-09T10:00:38.742Z,16.60
2024-04-09T10:03:07.289Z,19.30
2024-04-09T10:05:38.175Z,14.77
2024-04-09T10:08:15.606Z,22.48
2024-04-09T10:10:44.097Z,19.77
2024-04-09T10:13:12.721Z,16.95
2024-04-09T10:15:46.313Z,15.60
2024-04-09T10:18:28.370Z,15.70
2024-04-09T10:20:55.946Z,15.15
2024-04-09T10:23:24.491Z,17.30
2024-04-09T10:25:52.190Z,15.90
2024-04-09T10:28:34.246Z,16.73
2024-04-09T10:31:03.881Z,34.88
2024-04-09T10:33:42.012Z,17.42
2024-04-09T10:36:13.004Z,16.27
2024-04-09T10:38:43.754Z,14.57
2024-04-09T10:41:13.342Z,13.85
2024-04-09T10:43:41.373Z,16.85
2024-04-09T10:46:14.192Z,24.17
2024-04-09T10:48:44.126Z,15.57
2024-04-09T10:51:12.384Z,22.88
2024-04-09T10:53:40.145Z,38.38
2024-04-09T10:56:08.864Z,19.90
2024-04-09T10:58:39.359Z,20.70
2024-04-09T11:01:09.121Z,18.13
2024-04-09T11:03:36.836Z,16.95
2024-04-09T11:06:04.584Z,15.27
2024-04-09T11:08:35.588Z,12.18
2024-04-09T11:11:04.478Z,18.83
2024-04-09T11:13:33.192Z,22.90
2024-04-09T11:16:05.415Z,16.35
2024-04-09T11:18:32.944Z,18.27
2024-04-09T11:21:05.021Z,16.85
2024-04-09T11:23:33.286Z,22.75
2024-04-09T11:26:03.058Z,19.15
2024-04-09T11:28:32.271Z,17.40
2024-04-09T11:31:01.563Z,20.48
2024-04-09T11:33:30.040Z,20.27
2024-04-09T11:36:07.451Z,14.73
2024-04-09T11:38:38.326Z,24.00
2024-04-09T11:41:05.963Z,17.30
2024-04-09T11:43:33.314Z,18.10
2024-04-09T11:46:01.459Z,22.35
2024-04-09T11:48:29.047Z,20.95
2024-04-09T11:50:56.590Z,23.90
2024-04-09T11:53:24.653Z,25.98
2024-04-09T11:55:54.783Z,14.48
2024-04-09T11:58:22.477Z,20.30
2024-04-09T12:00:49.990Z,17.65
2024-04-09T12:03:17.647Z,19.88
2024-04-09T12:05:45.236Z,28.75
2024-04-09T12:08:12.652Z,20.55
2024-04-09T12:10:40.125Z,20.58
2024-04-09T12:13:07.546Z,22.08
2024-04-09T12:15:35.002Z,27.20
2024-04-09T12:18:02.625Z,18.67
2024-04-09T12:20:30.206Z,27.77
2024-04-09T12:22:57.704Z,29.60
2024-04-09T12:25:25.137Z,21.90
2024-04-09T12:27:52.533Z,20.05
2024-04-09T12:30:20.449Z,32.70
2024-04-09T12:32:48.226Z,19.90
2024-04-09T12:35:17.252Z,17.55
2024-04-09T12:37:46.293Z,17.00
2024-04-09T12:40:13.835Z,14.23
2024-04-09T12:42:42.453Z,7.70
2024-04-09T12:45:09.971Z,10.65
2024-04-09T12:47:37.991Z,9.20
2024-04-09T12:50:06.215Z,8.85
2024-04-09T12:52:35.441Z,7.85
2024-04-09T12:55:04.319Z,11.52
2024-04-09T12:57:32.732Z,4.38
2024-04-09T13:00:14.181Z,19.08
2024-04-09T13:02:47.969Z,7.03
2024-04-09T13:05:18.262Z,6.43
2024-04-09T13:07:46.092Z,5.35
2024-04-09T13:10:16.021Z,8.10
2024-04-09T13:12:43.524Z,5.80
2024-04-09T13:17:41.830Z,4.38
2024-04-09T13:20:09.790Z,8.48
2024-04-09T13:22:37.517Z,4.13
2024-04-09T13:25:04.981Z,4.40
2024-04-09T13:27:32.374Z,2.97
2024-04-09T13:30:00.769Z,4.40
2024-04-09T13:32:28.655Z,4.05
2024-04-09T13:34:56.811Z,5.20
2024-04-09T13:37:24.222Z,4.53
2024-04-09T13:39:52.853Z,6.43
2024-04-09T13:42:20.382Z,5.30
2024-04-09T13:44:47.796Z,5.93
2024-04-09T13:47:15.310Z,4.55
2024-04-09T13:49:43.609Z,2.22
2024-04-09T13:52:11.133Z,9.32
2024-04-09T13:54:38.533Z,2.75
2024-04-09T13:57:05.974Z,5.10
2024-04-09T13:59:33.410Z,7.65
2024-04-09T14:02:00.835Z,6.10
2024-04-09T14:04:28.328Z,3.78
2024-04-09T14:06:55.856Z,6.75
2024-04-09T14:09:23.261Z,4.10
2024-04-09T14:11:50.828Z,3.42
2024-04-09T14:14:18.410Z,3.90
2024-04-09T14:16:46.502Z,2.95
2024-04-09T14:19:14.686Z,2.40
2024-04-09T14:21:43.802Z,3.88
2024-04-09T14:24:12.048Z,3.10
2024-04-09T14:26:42.249Z,1.05
2024-04-09T14:29:12.829Z,6.25
2024-04-09T14:31:41.527Z,1.42
2024-04-09T14:34:09.263Z,5.90
2024-04-09T14:36:36.649Z,5.68
2024-04-09T14:39:04.570Z,3.95
2024-04-09T14:41:32.397Z,3.65
2024-04-09T14:44:01.247Z,1.13
2024-04-09T14:46:30.519Z,1.63
2024-04-09T14:48:58.321Z,3.92
2024-04-09T14:51:25.835Z,4.05
2024-04-09T14:53:53.606Z,2.72
2024-04-09T14:56:21.064Z,2.55
2024-04-09T14:58:48.898Z,1.88
2024-04-09T15:01:16.529Z,0.98
2024-04-09T15:03:44.439Z,3.45
2024-04-09T15:06:13.054Z,3.25
2024-04-09T15:08:40.566Z,3.13
2024-04-09T15:11:08.359Z,3.00
2024-04-09T15:13:35.869Z,2.03
2024-04-09T15:16:03.457Z,3.10
2024-04-09T15:18:30.942Z,2.88
2024-04-09T15:20:58.405Z,1.65
2024-04-09T15:23:26.331Z,1.55
2024-04-09T15:25:54.179Z,4.82
2024-04-09T15:28:21.831Z,1.95
2024-04-09T15:30:52.992Z,1.27
2024-04-09T15:33:26.914Z,2.05
2024-04-09T15:35:55.104Z,0.70
2024-04-09T15:38:23.291Z,1.10
2024-04-09T15:40:52.351Z,1.50
2024-04-09T15:43:19.767Z,4.00
2024-04-09T15:45:47.464Z,2.22
2024-04-09T15:48:15.429Z,0.88
2024-04-09T15:50:43.432Z,9.30
2024-04-09T15:53:11.866Z,0.70
2024-04-09T15:55:39.585Z,2.17
2024-04-09T15:58:06.953Z,0.77
2024-04-09T16:00:35.839Z,1.38
2024-04-09T16:03:04.593Z,1.63
2024-04-09T16:05:32.559Z,1.65
2024-04-09T16:08:00.699Z,0.95
2024-04-09T16:10:28.306Z,1.15
2024-04-09T16:12:56.933Z,1.15
2024-04-09T16:15:24.317Z,3.30
2024-04-09T16:17:52.550Z,1.30
2024-04-09T16:20:21.502Z,2.70
2024-04-09T16:22:48.979Z,0.57
2024-04-09T16:25:16.548Z,1.33
2024-04-09T16:27:43.951Z,1.23
2024-04-09T16:30:12.612Z,0.80
2024-04-09T16:32:41.746Z,1.35
2024-04-09T16:35:09.828Z,3.55
2024-04-09T16:37:38.156Z,0.50
2024-04-09T16:40:06.820Z,0.47
2024-04-09T16:42:34.532Z,1.25
2024-04-09T16:45:02.163Z,0.85
2024-04-09T16:47:29.935Z,1.05
2024-04-09T16:49:57.424Z,1.48
2024-04-09T16:52:24.803Z,0.95
2024-04-09T16:54:55.771Z,1.17
2024-04-09T16:57:32.955Z,0.95
2024-04-09T17:00:05.808Z,0.70
2024-04-09T17:02:33.261Z,1.02
2024-04-09T17:05:00.899Z,1.10
2024-04-09T17:07:28.580Z,1.70
2024-04-09T17:09:55.925Z,1.58
2024-04-09T17:12:23.445Z,0.80
2024-04-09T17:14:51.625Z,1.77
2024-04-09T17:17:19.251Z,0.60
2024-04-09T17:19:47.840Z,1.30
2024-04-09T17:22:15.271Z,2.50
2024-04-09T17:24:43.552Z,0.95
2024-04-09T17:27:11.191Z,1.38
2024-04-09T17:29:38.552Z,0.98
2024-04-09T17:32:05.955Z,3.00
2024-04-09T17:34:33.420Z,0.60
2024-04-09T17:37:00.835Z,0.95
2024-04-09T17:39:28.205Z,1.20
2024-04-09T17:41:55.746Z,1.00
2024-04-09T17:44:23.484Z,1.63
2024-04-09T17:46:54.785Z,1.92
2024-04-09T17:49:22.446Z,1.25
2024-04-09T17:51:49.878Z,0.80
2024-04-09T17:54:17.248Z,0.73
2024-04-09T17:56:46.378Z,1.30
2024-04-09T17:59:14.877Z,1.30
2024-04-09T18:01:42.538Z,0.50
2024-04-09T18:04:10.189Z,1.35
2024-04-09T18:06:37.633Z,1.55
2024-04-09T18:09:06.103Z,0.95
2024-04-09T18:11:33.630Z,2.08
2024-04-09T18:14:01.917Z,1.20
2024-04-09T18:16:29.800Z,0.65
2024-04-09T18:18:58.363Z,2.45
2024-04-09T18:21:29.866Z,0.98
2024-04-09T18:23:58.705Z,0.60
2024-04-09T18:26:26.290Z,2.92
2024-04-09T18:28:54.027Z,1.35
2024-04-09T18:31:21.587Z,2.53
2024-04-09T18:33:49.079Z,0.70
2024-04-09T18:36:16.511Z,1.23
2024-04-09T18:38:44.041Z,1.88
2024-04-09T18:41:11.940Z,1.45
2024-04-09T18:43:39.383Z,1.75
2024-04-09T18:46:06.767Z,0.70
2024-04-09T18:48:34.404Z,1.35
2024-04-09T18:51:05.371Z,0.80
2024-04-09T18:53:36.585Z,0.63
2024-04-09T18:56:04.911Z,1.00
2024-04-09T18:58:32.588Z,0.73
2024-04-09T19:01:02.592Z,0.80
2024-04-09T19:03:30.869Z,0.60
2024-04-09T19:05:58.436Z,0.68
2024-04-09T19:08:28.478Z,1.85
2024-04-09T19:10:56.077Z,0.95
2024-04-09T19:13:23.545Z,1.15
2024-04-09T19:15:58.154Z,0.65
2024-04-09T19:18:25.738Z,0.93
2024-04-09T19:20:54.483Z,4.88
2024-04-09T19:23:24.564Z,1.02
2024-04-09T19:25:53.058Z,0.93
2024-04-09T19:28:20.524Z,0.30
2024-04-09T19:30:53.062Z,0.55
2024-04-09T19:33:20.798Z,2.17
2024-04-09T19:35:49.783Z,1.00
2024-04-09T19:38:20.789Z,1.45
2024-04-09T19:40:49.861Z,0.45
2024-04-09T19:43:30.108Z,1.55
2024-04-09T19:46:05.773Z,2.08
2024-04-09T19:48:33.409Z,3.88
2024-04-09T19:51:00.819Z,1.85
2024-04-09T19:53:35.676Z,1.10
2024-04-09T19:56:15.056Z,0.65
2024-04-09T19:58:43.590Z,1.05
2024-04-09T20:01:11.674Z,0.50
2024-04-09T20:03:39.265Z,1.83
2024-04-09T20:06:07.061Z,0.98
2024-04-09T20:08:35.568Z,1.27
2024-04-09T20:11:05.922Z,1.35
2024-04-09T20:13:38.108Z,1.55
2024-04-09T20:16:05.665Z,1.23
2024-04-09T20:18:34.967Z,2.90
2024-04-09T20:21:04.080Z,1.33
2024-04-09T20:23:32.788Z,1.83
2024-04-09T20:26:04.940Z,1.45
2024-04-09T20:28:36.243Z,0.85
2024-04-09T20:31:15.164Z,2.50
2024-04-09T20:33:45.567Z,0.98
2024-04-09T20:36:13.951Z,1.48
2024-04-09T20:38:41.545Z,0.85
2024-04-09T20:41:09.098Z,1.55
2024-04-09T20:43:36.781Z,1.27
2024-04-09T20:46:07.663Z,1.65
2024-04-09T20:48:35.436Z,5.50
2024-04-09T20:51:02.943Z,1.50
2024-04-09T20:53:30.326Z,5.68
2024-04-09T20:56:01.642Z,1.10
2024-04-09T20:58:29.690Z,3.53
2024-04-09T21:00:57.085Z,1.92
2024-04-09T21:03:24.595Z,1.30
2024-04-09T21:05:52.028Z,1.20
2024-04-09T21:08:19.446Z,2.97
2024-04-09T21:10:53.118Z,3.72
2024-04-09T21:13:20.542Z,1.02
2024-04-09T21:15:48.312Z,3.33
2024-04-09T21:18:18.003Z,1.58
2024-04-09T21:20:46.032Z,2.03
2024-04-09T21:23:13.547Z,1.55
2024-04-09T21:25:40.958Z,2.50
2024-04-09T21:28:08.489Z,1.10
2024-04-09T21:30:36.306Z,3.05
2024-04-09T21:33:05.708Z,1.55
2024-04-09T21:35:33.689Z,3.53
2024-04-09T21:38:01.314Z,3.35
2024-04-09T21:40:28.716Z,1.48
2024-04-09T21:42:56.083Z,2.70
2024-04-09T21:45:23.411Z,1.05
2024-04-09T21:47:50.920Z,1.73
2024-04-09T21:50:18.496Z,1.67
2024-04-09T21:52:45.955Z,1.63
2024-04-09T21:55:13.362Z,1.13
2024-04-09T21:57:41.261Z,1.05
2024-04-09T22:00:35.049Z,1.60
2024-04-09T22:03:02.622Z,1.38
2024-04-09T22:05:30.036Z,2.10
2024-04-09T22:07:57.481Z,0.73
2024-04-09T22:10:24.945Z,1.77
2024-04-09T22:12:58.455Z,0.90
2024-04-09T22:15:25.952Z,0.88
2024-04-09T22:17:53.497Z,0.82
2024-04-09T22:20:22.533Z,0.60
2024-04-09T22:22:50.443Z,2.55
2024-04-09T22:25:18.872Z,0.60
2024-04-09T22:27:48.069Z,0.70
2024-04-09T22:30:15.535Z,0.65
2024-04-09T22:32:44.702Z,1.45
2024-04-09T22:35:12.432Z,1.08
2024-04-09T22:37:39.762Z,1.15
2024-04-09T22:40:07.480Z,0.90
2024-04-09T22:42:35.841Z,1.30
2024-04-09T22:45:03.901Z,0.70
2024-04-09T22:47:31.715Z,0.98
2024-04-09T22:49:59.325Z,1.27
2024-04-09T22:52:27.962Z,1.38
2024-04-09T22:54:57.193Z,1.80
2024-04-09T22:57:24.571Z,0.80
2024-04-09T22:59:52.417Z,1.25
2024-04-09T23:02:19.899Z,2.55
2024-04-09T23:04:52.494Z,0.90
2024-04-09T23:07:20.802Z,0.82
2024-04-09T23:09:48.184Z,1.48
2024-04-09T23:12:15.786Z,0.75
2024-04-09T23:14:43.208Z,1.67
2024-04-09T23:17:13.631Z,0.65
2024-04-09T23:19:42.729Z,1.23
2024-04-09T23:22:10.060Z,1.77
2024-04-09T23:24:37.407Z,0.73
2024-04-09T23:27:07.147Z,0.88
2024-04-09T23:29:34.872Z,1.50
2024-04-09T23:32:02.319Z,1.30
2024-04-09T23:34:29.774Z,2.85
2024-04-09T23:36:57.146Z,1.88
2024-04-09T23:39:24.495Z,0.65
2024-04-09T23:42:03.874Z,2.17
2024-04-09T23:44:33.124Z,2.20
2024-04-09T23:47:01.648Z,0.90
2024-04-09T23:49:29.864Z,1.67
2024-04-09T23:51:57.272Z,1.92
2024-04-09T23:54:24.747Z,1.02
2024-04-09T23:56:52.904Z,2.53
2024-04-09T23:59:20.479Z,0.85
